sensor_id;sensor_type;location;lat;lon;timestamp;P1;durP1;ratioP1;P2;durP2;ratioP2
38513;SDS011;24282;48.400;10.808;2022-08-01T00:01:57;3.40;;;1.80;;
38513;SDS011;24282;48.400;10.808;2022-08-01T00:04:23;3.33;;;1.92;;
38513;SDS011;24282;48.400;10.808;2022-08-01T00:06:48;3.60;;;1.80;;
38513;SDS011;24282;48.400;10.808;2022-08-01T00:09:14;3.47;;;2.35;;
38513;SDS011;24282;48.400;10.808;2022-08-01T00:11:40;3.10;;;2.25;;
38513;SDS011;24282;48.400;10.808;2022-08-01T00:14:06;2.65;;;2.10;;
38513;SDS011;24282;48.400;10.808;2022-08-01T00:16:34;2.50;;;1.63;;
38513;SDS011;24282;48.400;10.808;2022-08-01T00:19:00;2.78;;;1.90;;
38513;SDS011;24282;48.400;10.808;2022-08-01T00:21:26;3.53;;;1.98;;
38513;SDS011;24282;48.400;10.808;2022-08-01T00:23:52;2.63;;;2.05;;
38513;SDS011;24282;48.400;10.808;2022-08-01T00:26:17;4.88;;;2.20;;
38513;SDS011;24282;48.400;10.808;2022-08-01T00:28:43;2.63;;;2.17;;
38513;SDS011;24282;48.400;10.808;2022-08-01T00:31:09;4.07;;;2.20;;
38513;SDS011;24282;48.400;10.808;2022-08-01T00:33:34;4.68;;;2.30;;
38513;SDS011;24282;48.400;10.808;2022-08-01T00:36:00;2.67;;;2.38;;
38513;SDS011;24282;48.400;10.808;2022-08-01T00:38:26;3.20;;;2.28;;
38513;SDS011;24282;48.400;10.808;2022-08-01T00:40:52;3.72;;;2.17;;
38513;SDS011;24282;48.400;10.808;2022-08-01T00:43:17;3.05;;;1.88;;
38513;SDS011;24282;48.400;10.808;2022-08-01T00:45:43;3.15;;;2.25;;
38513;SDS011;24282;48.400;10.808;2022-08-01T00:48:09;3.67;;;2.30;;
38513;SDS011;24282;48.400;10.808;2022-08-01T00:50:35;3.45;;;2.30;;
38513;SDS011;24282;48.400;10.808;2022-08-01T00:53:01;5.22;;;2.35;;
38513;SDS011;24282;48.400;10.808;2022-08-01T00:55:27;3.47;;;2.60;;
38513;SDS011;24282;48.400;10.808;2022-08-01T00:57:54;3.33;;;2.20;;
38513;SDS011;24282;48.400;10.808;2022-08-01T01:00:20;3.33;;;2.22;;
38513;SDS011;24282;48.400;10.808;2022-08-01T01:02:47;4.07;;;2.17;;
38513;SDS011;24282;48.400;10.808;2022-08-01T01:05:13;2.67;;;1.92;;
38513;SDS011;24282;48.400;10.808;2022-08-01T01:07:49;2.92;;;2.45;;
38513;SDS011;24282;48.400;10.808;2022-08-01T01:10:32;3.10;;;2.08;;
38513;SDS011;24282;48.400;10.808;2022-08-01T01:13:13;3.35;;;2.38;;
38513;SDS011;24282;48.400;10.808;2022-08-01T01:23:45;4.22;;;2.42;;
38513;SDS011;24282;48.400;10.808;2022-08-01T01:26:37;4.05;;;2.40;;
38513;SDS011;24282;48.400;10.808;2022-08-01T01:34:34;2.95;;;2.40;;
38513;SDS011;24282;48.400;10.808;2022-08-01T01:37:03;3.22;;;2.30;;
38513;SDS011;24282;48.400;10.808;2022-08-01T01:39:32;3.60;;;2.67;;
38513;SDS011;24282;48.400;10.808;2022-08-01T01:42:00;3.45;;;2.35;;
38513;SDS011;24282;48.400;10.808;2022-08-01T01:44:29;3.80;;;2.33;;
38513;SDS011;24282;48.400;10.808;2022-08-01T01:46:56;5.32;;;2.58;;
38513;SDS011;24282;48.400;10.808;2022-08-01T01:49:23;5.15;;;2.75;;
38513;SDS011;24282;48.400;10.808;2022-08-01T01:51:53;4.00;;;2.08;;
38513;SDS011;24282;48.400;10.808;2022-08-01T01:54:22;2.92;;;2.40;;
38513;SDS011;24282;48.400;10.808;2022-08-01T01:56:53;3.70;;;2.43;;
38513;SDS011;24282;48.400;10.808;2022-08-01T01:59:24;2.90;;;2.20;;
38513;SDS011;24282;48.400;10.808;2022-08-01T02:01:53;4.60;;;2.92;;
38513;SDS011;24282;48.400;10.808;2022-08-01T02:04:20;3.20;;;2.25;;
38513;SDS011;24282;48.400;10.808;2022-08-01T02:06:48;3.17;;;2.45;;
38513;SDS011;24282;48.400;10.808;2022-08-01T02:09:19;2.97;;;2.47;;
38513;SDS011;24282;48.400;10.808;2022-08-01T02:11:47;5.05;;;1.95;;
38513;SDS011;24282;48.400;10.808;2022-08-01T02:14:14;4.68;;;2.50;;
38513;SDS011;24282;48.400;10.808;2022-08-01T02:16:42;5.85;;;3.05;;
38513;SDS011;24282;48.400;10.808;2022-08-01T02:19:12;3.90;;;2.80;;
38513;SDS011;24282;48.400;10.808;2022-08-01T02:21:40;4.10;;;2.25;;
38513;SDS011;24282;48.400;10.808;2022-08-01T02:26:42;2.53;;;1.92;;
38513;SDS011;24282;48.400;10.808;2022-08-01T02:29:14;4.50;;;2.17;;
38513;SDS011;24282;48.400;10.808;2022-08-01T02:31:44;3.58;;;2.17;;
38513;SDS011;24282;48.400;10.808;2022-08-01T02:34:13;3.90;;;2.00;;
38513;SDS011;24282;48.400;10.808;2022-08-01T02:36:43;3.38;;;2.60;;
38513;SDS011;24282;48.400;10.808;2022-08-01T02:39:12;3.13;;;2.30;;
38513;SDS011;24282;48.400;10.808;2022-08-01T02:41:41;3.55;;;2.22;;
38513;SDS011;24282;48.400;10.808;2022-08-01T02:44:09;3.05;;;2.13;;
38513;SDS011;24282;48.400;10.808;2022-08-01T02:46:42;5.20;;;2.40;;
38513;SDS011;24282;48.400;10.808;2022-08-01T02:49:14;2.85;;;2.10;;
38513;SDS011;24282;48.400;10.808;2022-08-01T02:51:42;5.00;;;2.30;;
38513;SDS011;24282;48.400;10.808;2022-08-01T02:54:10;2.88;;;2.25;;
38513;SDS011;24282;48.400;10.808;2022-08-01T02:56:37;3.55;;;2.30;;
38513;SDS011;24282;48.400;10.808;2022-08-01T02:59:15;4.38;;;2.88;;
38513;SDS011;24282;48.400;10.808;2022-08-01T03:01:44;4.18;;;3.45;;
38513;SDS011;24282;48.400;10.808;2022-08-01T03:04:11;4.82;;;2.95;;
38513;SDS011;24282;48.400;10.808;2022-08-01T03:06:39;3.35;;;2.42;;
38513;SDS011;24282;48.400;10.808;2022-08-01T03:09:06;3.88;;;1.90;;
38513;SDS011;24282;48.400;10.808;2022-08-01T03:11:33;4.20;;;2.47;;
38513;SDS011;24282;48.400;10.808;2022-08-01T03:14:02;2.75;;;1.98;;
38513;SDS011;24282;48.400;10.808;2022-08-01T03:16:32;3.88;;;2.30;;
38513;SDS011;24282;48.400;10.808;2022-08-01T03:19:00;3.60;;;2.28;;
38513;SDS011;24282;48.400;10.808;2022-08-01T03:21:27;4.43;;;2.42;;
38513;SDS011;24282;48.400;10.808;2022-08-01T03:23:54;3.38;;;2.10;;
38513;SDS011;24282;48.400;10.808;2022-08-01T03:26:28;4.20;;;2.58;;
38513;SDS011;24282;48.400;10.808;2022-08-01T03:28:57;3.50;;;2.38;;
38513;SDS011;24282;48.400;10.808;2022-08-01T03:31:26;3.35;;;2.25;;
38513;SDS011;24282;48.400;10.808;2022-08-01T03:33:53;3.53;;;2.17;;
38513;SDS011;24282;48.400;10.808;2022-08-01T03:36:21;2.95;;;2.20;;
38513;SDS011;24282;48.400;10.808;2022-08-01T03:38:50;3.67;;;2.47;;
38513;SDS011;24282;48.400;10.808;2022-08-01T03:41:19;2.97;;;2.28;;
38513;SDS011;24282;48.400;10.808;2022-08-01T03:43:48;3.13;;;2.50;;
38513;SDS011;24282;48.400;10.808;2022-08-01T03:46:26;2.97;;;2.17;;
38513;SDS011;24282;48.400;10.808;2022-08-01T03:49:00;3.67;;;2.88;;
38513;SDS011;24282;48.400;10.808;2022-08-01T03:51:31;3.60;;;2.45;;
38513;SDS011;24282;48.400;10.808;2022-08-01T03:53:58;5.28;;;3.17;;
38513;SDS011;24282;48.400;10.808;2022-08-01T03:56:25;6.18;;;4.32;;
38513;SDS011;24282;48.400;10.808;2022-08-01T03:58:52;6.15;;;4.60;;
38513;SDS011;24282;48.400;10.808;2022-08-01T04:01:18;5.85;;;3.83;;
38513;SDS011;24282;48.400;10.808;2022-08-01T04:03:44;3.47;;;2.40;;
38513;SDS011;24282;48.400;10.808;2022-08-01T04:06:10;2.90;;;2.22;;
38513;SDS011;24282;48.400;10.808;2022-08-01T04:08:39;5.03;;;3.10;;
38513;SDS011;24282;48.400;10.808;2022-08-01T04:11:05;5.10;;;3.03;;
38513;SDS011;24282;48.400;10.808;2022-08-01T04:13:33;3.40;;;2.40;;
38513;SDS011;24282;48.400;10.808;2022-08-01T04:15:59;3.72;;;2.65;;
38513;SDS011;24282;48.400;10.808;2022-08-01T04:18:25;3.42;;;2.33;;
38513;SDS011;24282;48.400;10.808;2022-08-01T04:20:51;3.28;;;2.38;;
38513;SDS011;24282;48.400;10.808;2022-08-01T04:23:17;2.88;;;2.10;;
38513;SDS011;24282;48.400;10.808;2022-08-01T04:25:47;2.83;;;2.10;;
38513;SDS011;24282;48.400;10.808;2022-08-01T04:28:15;3.63;;;1.90;;
38513;SDS011;24282;48.400;10.808;2022-08-01T04:30:42;2.67;;;1.95;;
38513;SDS011;24282;48.400;10.808;2022-08-01T04:33:11;3.42;;;2.00;;
38513;SDS011;24282;48.400;10.808;2022-08-01T04:35:42;3.47;;;2.30;;
38513;SDS011;24282;48.400;10.808;2022-08-01T04:38:10;2.83;;;2.15;;
38513;SDS011;24282;48.400;10.808;2022-08-01T04:40:41;5.15;;;2.95;;
38513;SDS011;24282;48.400;10.808;2022-08-01T04:43:10;4.00;;;2.50;;
38513;SDS011;24282;48.400;10.808;2022-08-01T04:45:36;2.55;;;1.83;;
38513;SDS011;24282;48.400;10.808;2022-08-01T04:48:06;2.20;;;1.95;;
38513;SDS011;24282;48.400;10.808;2022-08-01T04:50:34;3.95;;;2.30;;
38513;SDS011;24282;48.400;10.808;2022-08-01T04:53:02;3.30;;;2.05;;
38513;SDS011;24282;48.400;10.808;2022-08-01T04:55:28;3.38;;;2.33;;
38513;SDS011;24282;48.400;10.808;2022-08-01T04:57:56;2.78;;;1.80;;
38513;SDS011;24282;48.400;10.808;2022-08-01T05:00:22;4.00;;;2.50;;
38513;SDS011;24282;48.400;10.808;2022-08-01T05:02:47;2.95;;;1.80;;
38513;SDS011;24282;48.400;10.808;2022-08-01T05:05:13;2.38;;;1.85;;
38513;SDS011;24282;48.400;10.808;2022-08-01T05:07:39;3.70;;;2.20;;
38513;SDS011;24282;48.400;10.808;2022-08-01T05:10:05;3.00;;;2.13;;
38513;SDS011;24282;48.400;10.808;2022-08-01T05:12:31;3.03;;;2.45;;
38513;SDS011;24282;48.400;10.808;2022-08-01T05:15:00;3.95;;;2.35;;
38513;SDS011;24282;48.400;10.808;2022-08-01T05:17:27;3.25;;;2.10;;
38513;SDS011;24282;48.400;10.808;2022-08-01T05:19:52;3.38;;;2.40;;
38513;SDS011;24282;48.400;10.808;2022-08-01T05:22:18;3.88;;;2.60;;
38513;SDS011;24282;48.400;10.808;2022-08-01T05:24:44;4.18;;;2.55;;
38513;SDS011;24282;48.400;10.808;2022-08-01T05:27:11;4.30;;;2.58;;
38513;SDS011;24282;48.400;10.808;2022-08-01T05:29:37;3.53;;;2.70;;
38513;SDS011;24282;48.400;10.808;2022-08-01T05:32:02;4.60;;;2.85;;
38513;SDS011;24282;48.400;10.808;2022-08-01T05:34:28;4.28;;;3.00;;
38513;SDS011;24282;48.400;10.808;2022-08-01T05:36:54;3.28;;;2.10;;
38513;SDS011;24282;48.400;10.808;2022-08-01T05:39:20;4.57;;;2.72;;
38513;SDS011;24282;48.400;10.808;2022-08-01T05:41:45;3.60;;;2.42;;
38513;SDS011;24282;48.400;10.808;2022-08-01T05:44:11;2.70;;;2.10;;
38513;SDS011;24282;48.400;10.808;2022-08-01T05:46:37;2.72;;;2.08;;
38513;SDS011;24282;48.400;10.808;2022-08-01T05:49:03;2.78;;;2.10;;
38513;SDS011;24282;48.400;10.808;2022-08-01T05:51:29;2.53;;;2.00;;
38513;SDS011;24282;48.400;10.808;2022-08-01T05:53:56;3.70;;;2.25;;
38513;SDS011;24282;48.400;10.808;2022-08-01T05:56:24;5.63;;;2.30;;
38513;SDS011;24282;48.400;10.808;2022-08-01T05:58:50;2.78;;;2.10;;
38513;SDS011;24282;48.400;10.808;2022-08-01T06:01:17;2.55;;;2.05;;
38513;SDS011;24282;48.400;10.808;2022-08-01T06:03:43;3.10;;;1.75;;
38513;SDS011;24282;48.400;10.808;2022-08-01T06:06:09;2.65;;;1.80;;
38513;SDS011;24282;48.400;10.808;2022-08-01T06:08:35;4.28;;;2.17;;
38513;SDS011;24282;48.400;10.808;2022-08-01T06:11:01;2.35;;;1.60;;
38513;SDS011;24282;48.400;10.808;2022-08-01T06:13:27;2.75;;;2.10;;
38513;SDS011;24282;48.400;10.808;2022-08-01T06:15:52;2.95;;;2.03;;
38513;SDS011;24282;48.400;10.808;2022-08-01T06:18:19;4.85;;;1.77;;
38513;SDS011;24282;48.400;10.808;2022-08-01T06:20:45;4.65;;;2.20;;
38513;SDS011;24282;48.400;10.808;2022-08-01T06:23:11;3.35;;;1.90;;
38513;SDS011;24282;48.400;10.808;2022-08-01T06:25:37;3.47;;;1.90;;
38513;SDS011;24282;48.400;10.808;2022-08-01T06:28:02;3.60;;;1.60;;
38513;SDS011;24282;48.400;10.808;2022-08-01T06:30:28;3.15;;;1.85;;
38513;SDS011;24282;48.400;10.808;2022-08-01T06:32:54;4.03;;;2.03;;
38513;SDS011;24282;48.400;10.808;2022-08-01T06:35:25;2.40;;;1.80;;
38513;SDS011;24282;48.400;10.808;2022-08-01T06:37:51;2.50;;;1.77;;
38513;SDS011;24282;48.400;10.808;2022-08-01T06:40:17;3.00;;;2.00;;
38513;SDS011;24282;48.400;10.808;2022-08-01T06:42:43;5.00;;;2.20;;
38513;SDS011;24282;48.400;10.808;2022-08-01T06:45:11;2.13;;;1.70;;
38513;SDS011;24282;48.400;10.808;2022-08-01T06:47:38;3.67;;;1.80;;
38513;SDS011;24282;48.400;10.808;2022-08-01T06:50:05;3.38;;;2.20;;
38513;SDS011;24282;48.400;10.808;2022-08-01T06:52:31;2.90;;;2.13;;
38513;SDS011;24282;48.400;10.808;2022-08-01T06:54:58;2.83;;;1.88;;
38513;SDS011;24282;48.400;10.808;2022-08-01T06:57:24;3.45;;;2.20;;
38513;SDS011;24282;48.400;10.808;2022-08-01T06:59:50;3.10;;;2.00;;
38513;SDS011;24282;48.400;10.808;2022-08-01T07:02:16;3.00;;;2.13;;
38513;SDS011;24282;48.400;10.808;2022-08-01T07:04:42;3.85;;;2.00;;
38513;SDS011;24282;48.400;10.808;2022-08-01T07:07:07;2.35;;;1.70;;
38513;SDS011;24282;48.400;10.808;2022-08-01T07:09:33;3.78;;;2.15;;
38513;SDS011;24282;48.400;10.808;2022-08-01T07:11:59;3.15;;;2.25;;
38513;SDS011;24282;48.400;10.808;2022-08-01T07:14:25;3.13;;;1.70;;
38513;SDS011;24282;48.400;10.808;2022-08-01T07:16:51;2.40;;;1.58;;
38513;SDS011;24282;48.400;10.808;2022-08-01T07:19:17;5.13;;;2.15;;
38513;SDS011;24282;48.400;10.808;2022-08-01T07:21:43;2.95;;;1.90;;
38513;SDS011;24282;48.400;10.808;2022-08-01T07:24:09;3.45;;;1.73;;
38513;SDS011;24282;48.400;10.808;2022-08-01T07:26:37;2.85;;;1.70;;
38513;SDS011;24282;48.400;10.808;2022-08-01T07:29:04;3.00;;;1.70;;
38513;SDS011;24282;48.400;10.808;2022-08-01T07:31:30;3.13;;;2.08;;
38513;SDS011;24282;48.400;10.808;2022-08-01T07:33:55;2.15;;;1.60;;
38513;SDS011;24282;48.400;10.808;2022-08-01T07:36:21;3.65;;;1.80;;
38513;SDS011;24282;48.400;10.808;2022-08-01T07:38:47;3.35;;;2.00;;
38513;SDS011;24282;48.400;10.808;2022-08-01T07:41:14;2.33;;;1.70;;
38513;SDS011;24282;48.400;10.808;2022-08-01T07:43:39;2.35;;;1.85;;
38513;SDS011;24282;48.400;10.808;2022-08-01T07:46:05;2.63;;;1.63;;
38513;SDS011;24282;48.400;10.808;2022-08-01T07:48:31;3.35;;;1.85;;
38513;SDS011;24282;48.400;10.808;2022-08-01T07:50:57;5.10;;;1.67;;
38513;SDS011;24282;48.400;10.808;2022-08-01T07:53:23;3.63;;;1.48;;
38513;SDS011;24282;48.400;10.808;2022-08-01T07:55:49;2.97;;;1.55;;
38513;SDS011;24282;48.400;10.808;2022-08-01T07:58:15;2.25;;;1.40;;
38513;SDS011;24282;48.400;10.808;2022-08-01T08:00:41;2.63;;;1.42;;
38513;SDS011;24282;48.400;10.808;2022-08-01T08:03:07;3.20;;;1.70;;
38513;SDS011;24282;48.400;10.808;2022-08-01T08:05:33;3.03;;;1.60;;
38513;SDS011;24282;48.400;10.808;2022-08-01T08:08:06;2.45;;;1.42;;
38513;SDS011;24282;48.400;10.808;2022-08-01T08:10:33;3.30;;;1.60;;
38513;SDS011;24282;48.400;10.808;2022-08-01T08:13:00;2.38;;;1.67;;
38513;SDS011;24282;48.400;10.808;2022-08-01T08:15:26;2.15;;;1.67;;
38513;SDS011;24282;48.400;10.808;2022-08-01T08:17:52;2.65;;;1.77;;
38513;SDS011;24282;48.400;10.808;2022-08-01T08:20:18;2.90;;;1.70;;
38513;SDS011;24282;48.400;10.808;2022-08-01T08:22:50;3.85;;;2.15;;
38513;SDS011;24282;48.400;10.808;2022-08-01T08:25:16;2.83;;;1.80;;
38513;SDS011;24282;48.400;10.808;2022-08-01T08:27:44;1.98;;;1.42;;
38513;SDS011;24282;48.400;10.808;2022-08-01T08:30:11;1.95;;;1.55;;
38513;SDS011;24282;48.400;10.808;2022-08-01T08:32:37;2.17;;;1.20;;
38513;SDS011;24282;48.400;10.808;2022-08-01T08:35:04;3.78;;;1.20;;
38513;SDS011;24282;48.400;10.808;2022-08-01T08:37:31;1.90;;;1.30;;
38513;SDS011;24282;48.400;10.808;2022-08-01T08:39:58;2.67;;;1.38;;
38513;SDS011;24282;48.400;10.808;2022-08-01T08:42:24;2.47;;;1.20;;
38513;SDS011;24282;48.400;10.808;2022-08-01T08:44:50;2.38;;;1.40;;
38513;SDS011;24282;48.400;10.808;2022-08-01T08:47:16;2.38;;;1.67;;
38513;SDS011;24282;48.400;10.808;2022-08-01T08:49:43;3.92;;;1.27;;
38513;SDS011;24282;48.400;10.808;2022-08-01T08:52:09;2.03;;;1.33;;
38513;SDS011;24282;48.400;10.808;2022-08-01T08:54:37;2.13;;;1.15;;
38513;SDS011;24282;48.400;10.808;2022-08-01T08:57:05;3.05;;;1.38;;
38513;SDS011;24282;48.400;10.808;2022-08-01T08:59:31;4.85;;;1.10;;
38513;SDS011;24282;48.400;10.808;2022-08-01T09:01:58;2.30;;;1.30;;
38513;SDS011;24282;48.400;10.808;2022-08-01T09:04:25;2.83;;;0.90;;
38513;SDS011;24282;48.400;10.808;2022-08-01T09:06:51;2.67;;;1.05;;
38513;SDS011;24282;48.400;10.808;2022-08-01T09:09:18;1.63;;;1.20;;
38513;SDS011;24282;48.400;10.808;2022-08-01T09:11:43;1.73;;;1.13;;
38513;SDS011;24282;48.400;10.808;2022-08-01T09:14:10;3.08;;;1.17;;
38513;SDS011;24282;48.400;10.808;2022-08-01T09:16:42;1.88;;;0.98;;
38513;SDS011;24282;48.400;10.808;2022-08-01T09:19:20;1.48;;;1.13;;
38513;SDS011;24282;48.400;10.808;2022-08-01T09:22:01;1.67;;;0.90;;
38513;SDS011;24282;48.400;10.808;2022-08-01T09:24:29;1.65;;;1.02;;
38513;SDS011;24282;48.400;10.808;2022-08-01T09:26:56;2.40;;;1.00;;
38513;SDS011;24282;48.400;10.808;2022-08-01T09:29:24;1.73;;;1.10;;
38513;SDS011;24282;48.400;10.808;2022-08-01T09:31:51;2.72;;;1.10;;
38513;SDS011;24282;48.400;10.808;2022-08-01T09:34:38;3.10;;;1.15;;
38513;SDS011;24282;48.400;10.808;2022-08-01T09:37:03;3.30;;;1.20;;
38513;SDS011;24282;48.400;10.808;2022-08-01T09:39:37;1.33;;;1.00;;
38513;SDS011;24282;48.400;10.808;2022-08-01T09:42:24;2.17;;;1.10;;
38513;SDS011;24282;48.400;10.808;2022-08-01T09:44:52;1.95;;;1.00;;
38513;SDS011;24282;48.400;10.808;2022-08-01T09:47:18;2.30;;;1.27;;
38513;SDS011;24282;48.400;10.808;2022-08-01T09:49:46;2.28;;;1.17;;
38513;SDS011;24282;48.400;10.808;2022-08-01T09:52:25;1.45;;;1.00;;
38513;SDS011;24282;48.400;10.808;2022-08-01T09:54:52;1.27;;;1.00;;
38513;SDS011;24282;48.400;10.808;2022-08-01T09:57:19;2.25;;;1.20;;
38513;SDS011;24282;48.400;10.808;2022-08-01T09:59:49;3.28;;;1.10;;
38513;SDS011;24282;48.400;10.808;2022-08-01T10:04:58;2.58;;;1.23;;
38513;SDS011;24282;48.400;10.808;2022-08-01T10:07:25;2.15;;;1.30;;
38513;SDS011;24282;48.400;10.808;2022-08-01T10:09:51;3.10;;;0.93;;
38513;SDS011;24282;48.400;10.808;2022-08-01T10:12:18;2.33;;;1.02;;
38513;SDS011;24282;48.400;10.808;2022-08-01T10:14:47;2.03;;;1.17;;
38513;SDS011;24282;48.400;10.808;2022-08-01T10:17:20;1.55;;;0.90;;
38513;SDS011;24282;48.400;10.808;2022-08-01T10:19:50;3.20;;;1.20;;
38513;SDS011;24282;48.400;10.808;2022-08-01T10:22:19;2.70;;;0.93;;
38513;SDS011;24282;48.400;10.808;2022-08-01T10:24:50;1.90;;;1.10;;
38513;SDS011;24282;48.400;10.808;2022-08-01T10:27:19;1.88;;;1.00;;
38513;SDS011;24282;48.400;10.808;2022-08-01T10:29:47;1.55;;;0.95;;
38513;SDS011;24282;48.400;10.808;2022-08-01T10:32:20;1.50;;;0.90;;
38513;SDS011;24282;48.400;10.808;2022-08-01T10:34:46;3.30;;;1.10;;
38513;SDS011;24282;48.400;10.808;2022-08-01T10:37:14;2.22;;;1.05;;
38513;SDS011;24282;48.400;10.808;2022-08-01T10:39:40;1.75;;;1.00;;
38513;SDS011;24282;48.400;10.808;2022-08-01T10:42:06;1.48;;;0.90;;
38513;SDS011;24282;48.400;10.808;2022-08-01T10:44:35;2.30;;;1.05;;
38513;SDS011;24282;48.400;10.808;2022-08-01T10:49:48;1.70;;;1.08;;
38513;SDS011;24282;48.400;10.808;2022-08-01T10:52:35;1.33;;;0.98;;
38513;SDS011;24282;48.400;10.808;2022-08-01T10:55:04;1.95;;;1.15;;
38513;SDS011;24282;48.400;10.808;2022-08-01T10:57:41;1.67;;;1.00;;
38513;SDS011;24282;48.400;10.808;2022-08-01T11:00:17;1.50;;;1.00;;
38513;SDS011;24282;48.400;10.808;2022-08-01T11:03:00;3.33;;;1.40;;
38513;SDS011;24282;48.400;10.808;2022-08-01T11:05:32;1.57;;;1.00;;
38513;SDS011;24282;48.400;10.808;2022-08-01T11:10:39;1.45;;;1.10;;
38513;SDS011;24282;48.400;10.808;2022-08-01T11:13:07;2.25;;;1.10;;
38513;SDS011;24282;48.400;10.808;2022-08-01T11:15:36;2.35;;;1.23;;
38513;SDS011;24282;48.400;10.808;2022-08-01T11:18:49;2.15;;;0.95;;
38513;SDS011;24282;48.400;10.808;2022-08-01T11:20:56;2.00;;;1.05;;
38513;SDS011;24282;48.400;10.808;2022-08-01T11:23:29;2.00;;;1.15;;
38513;SDS011;24282;48.400;10.808;2022-08-01T11:28:28;1.77;;;1.10;;
38513;SDS011;24282;48.400;10.808;2022-08-01T11:33:48;2.65;;;1.38;;
38513;SDS011;24282;48.400;10.808;2022-08-01T11:54:40;1.45;;;1.10;;
38513;SDS011;24282;48.400;10.808;2022-08-01T11:57:18;2.10;;;1.42;;
38513;SDS011;24282;48.400;10.808;2022-08-01T11:59:47;4.15;;;1.40;;
38513;SDS011;24282;48.400;10.808;2022-08-01T12:04:57;2.33;;;1.17;;
38513;SDS011;24282;48.400;10.808;2022-08-01T12:07:26;1.88;;;1.15;;
38513;SDS011;24282;48.400;10.808;2022-08-01T12:10:12;1.17;;;0.90;;
38513;SDS011;24282;48.400;10.808;2022-08-01T12:15:10;3.05;;;1.30;;
38513;SDS011;24282;48.400;10.808;2022-08-01T12:17:39;1.38;;;1.15;;
38513;SDS011;24282;48.400;10.808;2022-08-01T12:20:07;2.65;;;1.20;;
38513;SDS011;24282;48.400;10.808;2022-08-01T12:22:35;2.70;;;1.17;;
38513;SDS011;24282;48.400;10.808;2022-08-01T12:25:07;2.08;;;1.00;;
38513;SDS011;24282;48.400;10.808;2022-08-01T12:27:35;2.35;;;1.20;;
38513;SDS011;24282;48.400;10.808;2022-08-01T12:30:04;2.47;;;1.30;;
38513;SDS011;24282;48.400;10.808;2022-08-01T12:32:35;2.45;;;1.45;;
38513;SDS011;24282;48.400;10.808;2022-08-01T12:35:04;2.13;;;1.23;;
38513;SDS011;24282;48.400;10.808;2022-08-01T12:37:32;1.65;;;1.08;;
38513;SDS011;24282;48.400;10.808;2022-08-01T12:40:09;2.53;;;1.40;;
38513;SDS011;24282;48.400;10.808;2022-08-01T12:42:40;3.20;;;1.42;;
38513;SDS011;24282;48.400;10.808;2022-08-01T12:45:07;2.45;;;1.52;;
38513;SDS011;24282;48.400;10.808;2022-08-01T12:47:35;2.00;;;1.30;;
38513;SDS011;24282;48.400;10.808;2022-08-01T12:50:02;1.70;;;1.00;;
38513;SDS011;24282;48.400;10.808;2022-08-01T12:52:33;2.75;;;1.33;;
38513;SDS011;24282;48.400;10.808;2022-08-01T12:55:09;1.83;;;0.90;;
38513;SDS011;24282;48.400;10.808;2022-08-01T12:57:36;2.25;;;1.30;;
38513;SDS011;24282;48.400;10.808;2022-08-01T13:00:05;1.55;;;1.20;;
38513;SDS011;24282;48.400;10.808;2022-08-01T13:02:39;1.23;;;1.00;;
38513;SDS011;24282;48.400;10.808;2022-08-01T13:05:07;2.33;;;1.42;;
38513;SDS011;24282;48.400;10.808;2022-08-01T13:07:52;1.75;;;1.30;;
38513;SDS011;24282;48.400;10.808;2022-08-01T13:10:26;1.60;;;1.23;;
38513;SDS011;24282;48.400;10.808;2022-08-01T13:12:54;1.50;;;1.10;;
38513;SDS011;24282;48.400;10.808;2022-08-01T13:15:26;2.15;;;1.35;;
38513;SDS011;24282;48.400;10.808;2022-08-01T13:17:58;1.45;;;1.02;;
38513;SDS011;24282;48.400;10.808;2022-08-01T13:20:31;1.30;;;0.80;;
38513;SDS011;24282;48.400;10.808;2022-08-01T13:23:14;2.47;;;1.20;;
38513;SDS011;24282;48.400;10.808;2022-08-01T13:26:14;2.35;;;1.35;;
38513;SDS011;24282;48.400;10.808;2022-08-01T13:28:33;1.85;;;1.00;;
38513;SDS011;24282;48.400;10.808;2022-08-01T13:31:06;2.22;;;1.20;;
38513;SDS011;24282;48.400;10.808;2022-08-01T13:33:46;1.35;;;1.00;;
38513;SDS011;24282;48.400;10.808;2022-08-01T13:36:12;3.25;;;1.10;;
38513;SDS011;24282;48.400;10.808;2022-08-01T13:38:39;1.27;;;0.98;;
38513;SDS011;24282;48.400;10.808;2022-08-01T13:41:24;1.20;;;1.02;;
38513;SDS011;24282;48.400;10.808;2022-08-01T13:43:50;1.90;;;1.10;;
38513;SDS011;24282;48.400;10.808;2022-08-01T13:46:18;3.22;;;1.40;;
38513;SDS011;24282;48.400;10.808;2022-08-01T13:48:44;2.75;;;1.40;;
38513;SDS011;24282;48.400;10.808;2022-08-01T13:51:10;3.70;;;1.58;;
38513;SDS011;24282;48.400;10.808;2022-08-01T13:53:36;8.10;;;2.30;;
38513;SDS011;24282;48.400;10.808;2022-08-01T13:56:02;3.47;;;1.40;;
38513;SDS011;24282;48.400;10.808;2022-08-01T13:58:28;3.28;;;1.05;;
38513;SDS011;24282;48.400;10.808;2022-08-01T14:00:57;5.05;;;1.20;;
38513;SDS011;24282;48.400;10.808;2022-08-01T14:03:23;3.00;;;1.38;;
38513;SDS011;24282;48.400;10.808;2022-08-01T14:05:49;2.97;;;1.10;;
38513;SDS011;24282;48.400;10.808;2022-08-01T14:08:15;2.72;;;1.10;;
38513;SDS011;24282;48.400;10.808;2022-08-01T14:10:40;5.70;;;1.35;;
38513;SDS011;24282;48.400;10.808;2022-08-01T14:13:06;2.65;;;0.93;;
38513;SDS011;24282;48.400;10.808;2022-08-01T14:15:32;1.63;;;0.70;;
38513;SDS011;24282;48.400;10.808;2022-08-01T14:17:58;2.20;;;0.80;;
38513;SDS011;24282;48.400;10.808;2022-08-01T14:20:24;2.53;;;1.05;;
38513;SDS011;24282;48.400;10.808;2022-08-01T14:22:50;3.80;;;0.90;;
38513;SDS011;24282;48.400;10.808;2022-08-01T14:25:16;1.90;;;0.90;;
38513;SDS011;24282;48.400;10.808;2022-08-01T14:27:43;3.55;;;1.00;;
38513;SDS011;24282;48.400;10.808;2022-08-01T14:30:10;2.35;;;1.10;;
38513;SDS011;24282;48.400;10.808;2022-08-01T14:32:36;3.67;;;1.20;;
38513;SDS011;24282;48.400;10.808;2022-08-01T14:35:03;1.90;;;0.90;;
38513;SDS011;24282;48.400;10.808;2022-08-01T14:37:30;1.95;;;1.00;;
38513;SDS011;24282;48.400;10.808;2022-08-01T14:39:57;2.28;;;0.80;;
38513;SDS011;24282;48.400;10.808;2022-08-01T14:42:23;1.30;;;0.70;;
38513;SDS011;24282;48.400;10.808;2022-08-01T14:44:49;2.58;;;1.00;;
38513;SDS011;24282;48.400;10.808;2022-08-01T14:47:14;1.73;;;0.73;;
38513;SDS011;24282;48.400;10.808;2022-08-01T14:49:40;2.75;;;0.93;;
38513;SDS011;24282;48.400;10.808;2022-08-01T14:52:06;1.38;;;0.85;;
38513;SDS011;24282;48.400;10.808;2022-08-01T14:54:32;2.63;;;0.82;;
38513;SDS011;24282;48.400;10.808;2022-08-01T14:56:58;1.77;;;1.00;;
38513;SDS011;24282;48.400;10.808;2022-08-01T14:59:24;1.20;;;0.82;;
38513;SDS011;24282;48.400;10.808;2022-08-01T15:01:49;2.53;;;1.02;;
38513;SDS011;24282;48.400;10.808;2022-08-01T15:04:15;1.88;;;0.88;;
38513;SDS011;24282;48.400;10.808;2022-08-01T15:06:43;1.77;;;0.93;;
38513;SDS011;24282;48.400;10.808;2022-08-01T15:09:09;1.80;;;1.00;;
38513;SDS011;24282;48.400;10.808;2022-08-01T15:11:35;2.00;;;1.10;;
38513;SDS011;24282;48.400;10.808;2022-08-01T15:14:01;2.17;;;1.02;;
38513;SDS011;24282;48.400;10.808;2022-08-01T15:16:46;2.42;;;1.10;;
38513;SDS011;24282;48.400;10.808;2022-08-01T15:19:12;2.25;;;0.88;;
38513;SDS011;24282;48.400;10.808;2022-08-01T15:21:38;3.30;;;1.38;;
38513;SDS011;24282;48.400;10.808;2022-08-01T15:24:04;1.58;;;0.70;;
38513;SDS011;24282;48.400;10.808;2022-08-01T15:26:30;2.00;;;0.75;;
38513;SDS011;24282;48.400;10.808;2022-08-01T15:28:56;8.57;;;1.13;;
38513;SDS011;24282;48.400;10.808;2022-08-01T15:31:22;1.83;;;0.98;;
38513;SDS011;24282;48.400;10.808;2022-08-01T15:33:49;2.72;;;0.90;;